createdAt,value
2017-05-03T00:01:41.726Z,101013.86
2017-05-03T00:04:08.026Z,101009.48
2017-05-03T00:06:34.568Z,101008.33
2017-05-03T00:09:00.884Z,101005.50
2017-05-03T00:11:27.220Z,101012.49
2017-05-03T00:13:53.540Z,101007.11
2017-05-03T00:16:19.862Z,101001.21
2017-05-03T00:18:46.173Z,101007.11
2017-05-03T00:21:12.487Z,101012.06
2017-05-03T00:23:38.796Z,101015.78
2017-05-03T00:26:05.126Z,101016.07
2017-05-03T00:28:31.457Z,101016.30
2017-05-03T00:30:57.821Z,101016.50
2017-05-03T00:33:24.203Z,101015.31
2017-05-03T00:35:50.498Z,101022.61
2017-05-03T00:38:16.816Z,101022.92
2017-05-03T00:40:43.126Z,101022.59
2017-05-03T00:43:09.458Z,101022.83
2017-05-03T00:45:35.771Z,101027.69
2017-05-03T00:48:02.090Z,101029.37
2017-05-03T00:50:28.426Z,101023.23
2017-05-03T00:52:54.734Z,101022.64
2017-05-03T00:55:21.051Z,101024.95
2017-05-03T00:57:47.349Z,101025.23
2017-05-03T01:00:13.705Z,101021.25
2017-05-03T01:02:40.024Z,101023.40
2017-05-03T01:05:06.344Z,101019.95
2017-05-03T01:07:32.689Z,101021.33
2017-05-03T01:09:59.015Z,101019.43
2017-05-03T01:12:25.356Z,101012.47
2017-05-03T01:14:51.701Z,101013.20
2017-05-03T01:17:18.096Z,101015.25
2017-05-03T01:19:44.450Z,101018.17
2017-05-03T01:22:11.066Z,101018.30
2017-05-03T01:24:37.424Z,101014.17
2017-05-03T01:27:03.777Z,101021.27
2017-05-03T01:29:30.115Z,101019.42
2017-05-03T01:31:56.540Z,101019.48
2017-05-03T01:34:22.918Z,101024.98
2017-05-03T01:36:49.240Z,101024.98
2017-05-03T01:39:15.575Z,101029.34
2017-05-03T01:41:42.060Z,101025.78
2017-05-03T01:44:08.417Z,101028.30
2017-05-03T01:46:34.756Z,101029.65
2017-05-03T01:49:01.100Z,101029.48
2017-05-03T01:51:27.547Z,101036.52
2017-05-03T01:53:53.855Z,101036.36
2017-05-03T01:56:20.170Z,101038.52
2017-05-03T01:58:46.496Z,101040.31
2017-05-03T02:01:12.966Z,101037.80
2017-05-03T02:03:39.277Z,101033.50
2017-05-03T02:06:05.721Z,101034.41
2017-05-03T02:08:32.036Z,101032.56
2017-05-03T02:10:58.381Z,101035.20
2017-05-03T02:13:24.734Z,101032.41
2017-05-03T02:15:51.063Z,101027.20
2017-05-03T02:18:17.381Z,101030.31
2017-05-03T02:20:43.677Z,101027.47
2017-05-03T02:23:09.997Z,101031.78
2017-05-03T02:25:36.313Z,101028.12
2017-05-03T02:28:02.764Z,101027.37
2017-05-03T02:30:29.062Z,101026.20
2017-05-03T02:32:55.425Z,101027.23
2017-05-03T02:35:21.834Z,101027.91
2017-05-03T02:37:48.506Z,101036.10
2017-05-03T02:40:14.825Z,101035.23
2017-05-03T02:42:41.144Z,101032.09
2017-05-03T02:45:07.463Z,101021.23
2017-05-03T02:47:33.956Z,101024.84
2017-05-03T02:50:00.270Z,101026.86
2017-05-03T02:52:26.576Z,101029.56
2017-05-03T02:54:52.900Z,101029.61
2017-05-03T02:57:19.372Z,101026.73
2017-05-03T02:59:45.682Z,101031.43
2017-05-03T03:02:12.021Z,101029.84
2017-05-03T03:04:38.354Z,101030.47
2017-05-03T03:07:04.864Z,101028.26
2017-05-03T03:09:31.175Z,101031.78
2017-05-03T03:11:57.831Z,101032.14
2017-05-03T03:14:24.146Z,101031.40
2017-05-03T03:16:50.510Z,101032.53
2017-05-03T03:19:16.809Z,101029.72
2017-05-03T03:21:43.122Z,101035.37
2017-05-03T03:24:09.449Z,101028.50
2017-05-03T03:26:35.758Z,101028.31
2017-05-03T03:29:02.256Z,101032.77
2017-05-03T03:31:28.579Z,101035.23
2017-05-03T03:33:54.947Z,101028.58
2017-05-03T03:36:21.261Z,101032.75
2017-05-03T03:38:47.601Z,101036.40
2017-05-03T03:41:13.904Z,101042.47
2017-05-03T03:43:40.221Z,101043.02
2017-05-03T03:46:06.548Z,101042.33
2017-05-03T03:48:32.885Z,101041.16
2017-05-03T03:50:59.194Z,101045.45
2017-05-03T03:53:25.518Z,101044.34
2017-05-03T03:55:52.015Z,101045.75
2017-05-03T03:58:18.452Z,101044.05
2017-05-03T04:00:44.787Z,101047.03
2017-05-03T04:03:11.167Z,101049.80
2017-05-03T04:05:37.487Z,101054.28
2017-05-03T04:08:03.841Z,101056.27
2017-05-03T04:13:05.376Z,101059.39
2017-05-03T04:15:31.690Z,101060.55
2017-05-03T04:17:57.995Z,101066.68
2017-05-03T04:20:24.313Z,101069.59
2017-05-03T04:22:50.646Z,101065.69
2017-05-03T04:25:16.981Z,101068.30
2017-05-03T04:27:43.307Z,101070.48
2017-05-03T04:30:09.761Z,101063.84
2017-05-03T04:32:36.120Z,101068.58
2017-05-03T04:35:02.427Z,101075.31
2017-05-03T04:37:28.772Z,101070.23
2017-05-03T04:39:55.084Z,101073.96
2017-05-03T04:42:21.478Z,101084.50
2017-05-03T04:44:47.805Z,101088.23
2017-05-03T04:47:14.263Z,101086.22
2017-05-03T04:49:40.601Z,101085.49
2017-05-03T04:52:06.957Z,101080.13
2017-05-03T04:54:33.268Z,101087.73
2017-05-03T04:56:59.772Z,101094.35
2017-05-03T04:59:26.086Z,101093.14
2017-05-03T05:01:52.433Z,101096.05
2017-05-03T05:04:18.724Z,101097.19
2017-05-03T05:06:45.076Z,101104.22
2017-05-03T05:09:11.402Z,101104.70
2017-05-03T05:11:37.724Z,101104.59
2017-05-03T05:14:04.066Z,101108.88
2017-05-03T05:16:30.394Z,101108.66
2017-05-03T05:18:56.733Z,101107.55
2017-05-03T05:21:23.023Z,101110.05
2017-05-03T05:23:49.322Z,101111.61
2017-05-03T05:26:15.697Z,101123.05
2017-05-03T05:28:42.016Z,101122.30
2017-05-03T05:31:08.340Z,101127.20
2017-05-03T05:33:34.684Z,101131.06
2017-05-03T05:36:01.011Z,101139.69
2017-05-03T05:38:27.483Z,101140.66
2017-05-03T05:40:53.813Z,101139.94
2017-05-03T05:43:20.157Z,101140.06
2017-05-03T05:45:46.470Z,101150.06
2017-05-03T05:48:12.805Z,101146.83
2017-05-03T05:50:39.126Z,101142.76
2017-05-03T05:53:05.448Z,101153.68
2017-05-03T05:55:31.783Z,101156.50
2017-05-03T05:57:58.490Z,101163.30
2017-05-03T06:00:24.815Z,101154.73
2017-05-03T06:02:51.437Z,101160.23
2017-05-03T06:05:17.765Z,101160.28
2017-05-03T06:07:44.080Z,101159.66
2017-05-03T06:10:10.397Z,101162.25
2017-05-03T06:12:37.120Z,101162.21
2017-05-03T06:15:03.457Z,101168.55
2017-05-03T06:17:29.772Z,101165.37
2017-05-03T06:19:56.091Z,101166.13
2017-05-03T06:22:22.443Z,101168.83
2017-05-03T06:24:48.788Z,101170.27
2017-05-03T06:27:15.124Z,101165.11
2017-05-03T06:29:41.450Z,101164.94
2017-05-03T06:32:07.775Z,101164.33
2017-05-03T06:34:34.101Z,101171.96
2017-05-03T06:37:00.445Z,101169.30
2017-05-03T06:39:26.853Z,101176.10
2017-05-03T06:41:53.270Z,101183.05
2017-05-03T06:44:19.618Z,101185.23
2017-05-03T06:46:45.945Z,101192.00
2017-05-03T06:49:12.272Z,101187.62
2017-05-03T06:51:38.617Z,101186.59
2017-05-03T06:54:04.932Z,101182.75
2017-05-03T06:56:31.258Z,101189.66
2017-05-03T06:58:57.580Z,101193.95
2017-05-03T07:01:23.927Z,101200.06
2017-05-03T07:03:50.258Z,101197.41
2017-05-03T07:06:16.571Z,101195.34
2017-05-03T07:08:42.904Z,101188.83
2017-05-03T07:11:09.248Z,101191.30
2017-05-03T07:13:35.553Z,101187.79
2017-05-03T07:16:02.382Z,101188.63
2017-05-03T07:18:28.694Z,101187.00
2017-05-03T07:20:55.002Z,101194.09
2017-05-03T07:23:21.329Z,101196.44
2017-05-03T07:25:47.642Z,101196.48
2017-05-03T07:28:13.976Z,101188.88
2017-05-03T07:30:40.313Z,101192.79
2017-05-03T07:33:06.648Z,101190.11
2017-05-03T07:35:32.997Z,101182.17
2017-05-03T07:37:59.335Z,101190.64
2017-05-03T07:40:25.663Z,101189.41
2017-05-03T07:42:51.996Z,101197.44
2017-05-03T07:45:18.440Z,101197.35
2017-05-03T07:47:44.762Z,101202.80
2017-05-03T07:50:11.101Z,101205.52
2017-05-03T07:52:37.404Z,101207.88
2017-05-03T07:55:03.758Z,101207.63
2017-05-03T07:57:30.093Z,101208.02
2017-05-03T07:59:56.418Z,101203.05
2017-05-03T08:02:22.773Z,101209.34
2017-05-03T08:04:49.218Z,101214.77
2017-05-03T08:07:15.582Z,101216.89
2017-05-03T08:09:41.955Z,101223.59
2017-05-03T08:12:08.289Z,101230.63
2017-05-03T08:14:34.692Z,101235.66
2017-05-03T08:17:01.077Z,101239.83
2017-05-03T08:19:27.426Z,101237.34
2017-05-03T08:21:53.798Z,101235.77
2017-05-03T08:24:20.147Z,101237.13
2017-05-03T08:26:46.469Z,101240.63
2017-05-03T08:29:12.835Z,101240.84
2017-05-03T08:31:39.257Z,101238.84
2017-05-03T08:34:05.583Z,101238.20
2017-05-03T08:36:31.927Z,101239.23
2017-05-03T08:38:58.304Z,101243.28
2017-05-03T08:41:24.673Z,101242.05
2017-05-03T08:43:51.029Z,101248.25
2017-05-03T08:46:17.405Z,101250.61
2017-05-03T08:48:43.793Z,101249.83
2017-05-03T08:51:10.233Z,101248.21
2017-05-03T08:53:36.559Z,101245.97
2017-05-03T08:56:02.936Z,101247.74
2017-05-03T08:58:29.283Z,101240.56
2017-05-03T09:00:55.657Z,101241.31
2017-05-03T09:03:22.088Z,101241.92
2017-05-03T09:05:53.925Z,101250.86
2017-05-03T09:08:20.407Z,101252.05
2017-05-03T09:10:52.320Z,101244.50
2017-05-03T09:13:18.829Z,101254.61
2017-05-03T09:15:45.409Z,101256.17
2017-05-03T09:18:11.902Z,101259.41
2017-05-03T09:20:38.237Z,101260.09
2017-05-03T09:23:09.970Z,101264.11
2017-05-03T09:25:36.421Z,101263.52
2017-05-03T09:28:02.769Z,101265.58
2017-05-03T09:30:29.218Z,101271.78
2017-05-03T09:32:55.714Z,101266.30
2017-05-03T09:35:22.662Z,101264.36
2017-05-03T09:37:49.058Z,101270.36
2017-05-03T09:40:20.662Z,101272.59
2017-05-03T09:42:46.998Z,101278.06
2017-05-03T09:45:13.900Z,101276.38
2017-05-03T09:47:52.405Z,101283.98
2017-05-03T09:50:19.277Z,101285.10
2017-05-03T09:52:46.542Z,101282.22
2017-05-03T09:55:13.057Z,101280.55
2017-05-03T09:57:42.574Z,101288.95
2017-05-03T10:00:14.964Z,101290.97
2017-05-03T10:02:41.541Z,101282.95
2017-05-03T10:05:08.175Z,101280.09
2017-05-03T10:07:39.943Z,101284.55
2017-05-03T10:10:09.831Z,101288.88
2017-05-03T10:12:36.316Z,101290.08
2017-05-03T10:15:09.784Z,101287.64
2017-05-03T10:17:36.466Z,101285.38
2017-05-03T10:20:08.326Z,101280.06
2017-05-03T10:25:06.886Z,101296.88
2017-05-03T10:27:33.327Z,101292.84
2017-05-03T10:29:59.775Z,101298.75
2017-05-03T10:32:31.561Z,101299.53
2017-05-03T10:34:57.898Z,101303.67
2017-05-03T10:37:27.190Z,101302.45
2017-05-03T10:39:58.949Z,101298.17
2017-05-03T10:42:27.084Z,101296.92
2017-05-03T10:44:53.486Z,101293.05
2017-05-03T10:47:19.941Z,101300.95
2017-05-03T10:49:51.528Z,101300.34
2017-05-03T10:52:18.307Z,101298.45
2017-05-03T10:54:46.402Z,101292.70
2017-05-03T10:57:12.803Z,101287.66
2017-05-03T10:59:39.508Z,101284.50
2017-05-03T11:02:06.220Z,101285.18
2017-05-03T11:04:32.710Z,101280.22
2017-05-03T11:07:04.293Z,101278.88
2017-05-03T11:09:36.237Z,101276.93
2017-05-03T11:12:02.639Z,101274.33
2017-05-03T11:14:29.363Z,101285.20
2017-05-03T11:16:55.706Z,101275.70
2017-05-03T11:19:22.372Z,101273.47
2017-05-03T11:21:48.695Z,101273.99
2017-05-03T11:24:22.437Z,101272.47
2017-05-03T11:26:52.873Z,101269.95
2017-05-03T11:29:19.529Z,101274.41
2017-05-03T11:31:45.852Z,101267.27
2017-05-03T11:34:17.882Z,101272.38
2017-05-03T11:36:44.229Z,101265.98
2017-05-03T11:39:10.998Z,101261.53
2017-05-03T11:41:37.325Z,101266.08
2017-05-03T11:44:03.772Z,101273.53
2017-05-03T11:46:30.154Z,101269.61
2017-05-03T11:49:02.724Z,101261.72
2017-05-03T11:51:34.368Z,101267.62
2017-05-03T11:54:01.092Z,101267.81
2017-05-03T11:56:32.672Z,101267.52
2017-05-03T11:58:59.108Z,101264.37
2017-05-03T12:01:30.591Z,101267.03
2017-05-03T12:03:57.795Z,101265.20
2017-05-03T12:06:28.164Z,101261.95
2017-05-03T12:08:59.006Z,101256.17
2017-05-03T12:11:25.905Z,101257.26
2017-05-03T12:13:52.550Z,101264.09
2017-05-03T12:16:24.137Z,101265.88
2017-05-03T12:18:50.790Z,101263.33
2017-05-03T12:21:17.370Z,101261.72
2017-05-03T12:23:43.758Z,101262.56
2017-05-03T12:26:10.205Z,101254.88
2017-05-03T12:28:36.616Z,101254.81
2017-05-03T12:31:08.108Z,101253.81
2017-05-03T12:33:39.936Z,101250.48
2017-05-03T12:36:07.260Z,101246.95
2017-05-03T12:38:42.023Z,101240.76
2017-05-03T12:41:14.046Z,101250.66
2017-05-03T12:43:41.510Z,101251.89
2017-05-03T12:46:09.299Z,101243.86
2017-05-03T12:48:40.968Z,101240.23
2017-05-03T12:51:14.730Z,101235.30
2017-05-03T12:53:41.973Z,101243.34
2017-05-03T12:56:08.350Z,101231.62
2017-05-03T12:58:38.082Z,101239.20
2017-05-03T13:01:04.765Z,101236.22
2017-05-03T13:03:38.533Z,101242.83
2017-05-03T13:06:05.110Z,101245.14
2017-05-03T13:08:32.305Z,101244.33
2017-05-03T13:11:03.975Z,101249.03
2017-05-03T13:13:30.711Z,101245.94
2017-05-03T13:15:58.295Z,101251.14
2017-05-03T13:18:29.740Z,101249.72
2017-05-03T13:20:56.132Z,101249.08
2017-05-03T13:23:22.446Z,101249.00
2017-05-03T13:25:48.963Z,101248.61
2017-05-03T13:28:15.313Z,101246.84
2017-05-03T13:30:41.760Z,101249.91
2017-05-03T13:33:08.509Z,101249.47
2017-05-03T13:35:34.883Z,101253.98
2017-05-03T13:38:01.225Z,101252.86
2017-05-03T13:40:27.564Z,101255.28
2017-05-03T13:42:54.094Z,101257.91
2017-05-03T13:45:20.428Z,101264.28
2017-05-03T13:47:47.024Z,101263.45
2017-05-03T13:50:13.336Z,101263.77
2017-05-03T13:52:39.676Z,101264.28
2017-05-03T13:55:06.012Z,101264.49
2017-05-03T13:57:36.888Z,101269.00
2017-05-03T14:00:03.269Z,101273.54
2017-05-03T14:02:29.585Z,101272.89
2017-05-03T14:04:56.013Z,101274.55
2017-05-03T14:07:22.396Z,101272.80
2017-05-03T14:09:48.714Z,101269.09
2017-05-03T14:12:15.039Z,101273.16
2017-05-03T14:14:41.359Z,101274.03
2017-05-03T14:17:07.883Z,101278.38
2017-05-03T14:19:34.193Z,101283.84
2017-05-03T14:22:00.508Z,101284.95
2017-05-03T14:24:26.839Z,101284.31
2017-05-03T14:26:53.321Z,101285.00
2017-05-03T14:29:19.651Z,101293.01
2017-05-03T14:31:45.965Z,101291.55
2017-05-03T14:34:12.319Z,101294.62
2017-05-03T14:36:38.813Z,101300.41
2017-05-03T14:39:05.167Z,101300.38
2017-05-03T14:41:31.517Z,101307.97
2017-05-03T14:43:57.834Z,101303.11
2017-05-03T14:46:24.133Z,101303.94
2017-05-03T14:48:50.455Z,101300.31
2017-05-03T14:51:16.790Z,101300.27
2017-05-03T14:53:43.120Z,101301.70
2017-05-03T14:56:09.451Z,101305.34
2017-05-03T14:58:35.803Z,101301.40
2017-05-03T15:01:02.122Z,101301.07
2017-05-03T15:03:28.452Z,101300.59
2017-05-03T15:05:54.787Z,101306.81
2017-05-03T15:08:21.095Z,101306.50
2017-05-03T15:10:47.441Z,101307.72
2017-05-03T15:13:13.758Z,101303.60
2017-05-03T15:15:40.116Z,101298.48
2017-05-03T15:18:06.467Z,101299.71
2017-05-03T15:20:32.801Z,101296.37
2017-05-03T15:22:59.293Z,101294.08
2017-05-03T15:25:25.614Z,101302.08
2017-05-03T15:27:52.016Z,101298.59
2017-05-03T15:30:18.347Z,101302.81
2017-05-03T15:32:44.850Z,101306.45
2017-05-03T15:35:11.163Z,101308.74
2017-05-03T15:37:37.573Z,101309.79
2017-05-03T15:40:03.935Z,101312.89
2017-05-03T15:42:30.271Z,101319.30
2017-05-03T15:44:56.624Z,101322.63
2017-05-03T15:47:22.984Z,101317.03
2017-05-03T15:49:49.294Z,101320.19
2017-05-03T15:52:15.636Z,101317.10
2017-05-03T15:54:41.992Z,101307.68
2017-05-03T15:57:08.339Z,101303.69
2017-05-03T15:59:34.878Z,101297.77
2017-05-03T16:02:02.968Z,101292.53
2017-05-03T16:04:29.369Z,101286.23
2017-05-03T16:06:56.253Z,101271.55
2017-05-03T16:09:23.055Z,101263.17
2017-05-03T16:11:49.546Z,101261.52
2017-05-03T16:14:16.331Z,101269.83
2017-05-03T16:16:43.256Z,101286.84
2017-05-03T16:19:09.811Z,101286.91
2017-05-03T16:21:36.423Z,101270.27
2017-05-03T16:24:02.761Z,101254.17
2017-05-03T16:26:29.098Z,101245.91
2017-05-03T16:28:56.438Z,101252.35
2017-05-03T16:31:23.426Z,101248.77
2017-05-03T16:33:49.889Z,101238.23
2017-05-03T16:36:16.449Z,101239.10
2017-05-03T16:38:43.001Z,101230.70
2017-05-03T16:41:09.774Z,101232.88
2017-05-03T16:43:36.119Z,101235.79
2017-05-03T16:46:02.608Z,101236.87
2017-05-03T16:48:29.571Z,101236.92
2017-05-03T16:50:56.081Z,101236.03
2017-05-03T16:53:22.590Z,101241.52
2017-05-03T16:55:49.471Z,101235.41
2017-05-03T16:58:16.243Z,101229.98
2017-05-03T17:00:42.872Z,101231.41
2017-05-03T17:03:10.003Z,101228.84
2017-05-03T17:05:38.245Z,101231.55
2017-05-03T17:08:05.266Z,101228.06
2017-05-03T17:10:31.845Z,101239.66
2017-05-03T17:12:58.341Z,101243.14
2017-05-03T17:15:25.438Z,101232.82
2017-05-03T17:17:51.801Z,101231.50
2017-05-03T17:20:18.637Z,101224.66
2017-05-03T17:22:45.949Z,101227.42
2017-05-03T17:25:12.337Z,101244.01
2017-05-03T17:27:39.308Z,101241.16
2017-05-03T17:30:05.768Z,101235.67
2017-05-03T17:32:32.330Z,101250.75
2017-05-03T17:34:58.991Z,101251.52
2017-05-03T17:37:25.391Z,101252.81
2017-05-03T17:39:51.732Z,101254.69
2017-05-03T17:42:18.123Z,101250.30
2017-05-03T17:44:44.906Z,101236.91
2017-05-03T17:47:11.700Z,101239.10
2017-05-03T17:49:38.244Z,101240.84
2017-05-03T17:52:04.740Z,101252.91
2017-05-03T17:54:31.092Z,101253.05
2017-05-03T17:56:57.482Z,101250.20
2017-05-03T17:59:24.096Z,101249.44
2017-05-03T18:01:50.670Z,101251.09
2017-05-03T18:04:17.242Z,101247.41
2017-05-03T18:06:44.013Z,101241.42
2017-05-03T18:09:10.457Z,101258.63
2017-05-03T18:11:36.947Z,101259.91
2017-05-03T18:14:03.349Z,101272.02
2017-05-03T18:16:31.008Z,101265.19
2017-05-03T18:18:57.415Z,101271.29
2017-05-03T18:21:23.757Z,101269.08
2017-05-03T18:23:50.161Z,101267.56
2017-05-03T18:26:17.482Z,101272.80
2017-05-03T18:28:43.818Z,101270.50
2017-05-03T18:31:10.175Z,101263.30
2017-05-03T18:33:36.766Z,101265.49
2017-05-03T18:36:03.137Z,101262.19
2017-05-03T18:38:29.448Z,101265.51
2017-05-03T18:40:55.819Z,101266.42
2017-05-03T18:43:22.462Z,101264.76
2017-05-03T18:45:48.797Z,101262.38
2017-05-03T18:48:15.134Z,101262.00
2017-05-03T18:50:41.617Z,101262.56
2017-05-03T18:53:07.975Z,101262.81
2017-05-03T18:55:34.356Z,101267.51
2017-05-03T18:58:00.736Z,101268.25
2017-05-03T19:00:27.276Z,101271.44
2017-05-03T19:02:53.617Z,101275.33
2017-05-03T19:05:20.221Z,101270.41
2017-05-03T19:07:47.270Z,101264.03
2017-05-03T19:10:14.283Z,101267.92
2017-05-03T19:12:40.672Z,101275.33
2017-05-03T19:15:07.020Z,101274.25
2017-05-03T19:17:33.355Z,101277.56
2017-05-03T19:20:00.574Z,101272.62
2017-05-03T19:22:26.971Z,101281.12
2017-05-03T19:24:53.325Z,101278.70
2017-05-03T19:27:19.745Z,101279.28
2017-05-03T19:29:46.361Z,101276.55
2017-05-03T19:32:12.826Z,101278.84
2017-05-03T19:34:39.227Z,101286.09
2017-05-03T19:37:05.629Z,101288.47
2017-05-03T19:39:32.243Z,101294.33
2017-05-03T19:41:59.818Z,101304.26
2017-05-03T19:44:26.706Z,101303.55
2017-05-03T19:46:53.305Z,101293.66
2017-05-03T19:49:19.651Z,101302.33
2017-05-03T19:51:46.379Z,101305.47
2017-05-03T19:54:12.734Z,101303.12
2017-05-03T19:56:40.033Z,101313.06
2017-05-03T19:59:06.594Z,101307.01
2017-05-03T20:01:32.994Z,101309.91
2017-05-03T20:03:59.440Z,101310.50
2017-05-03T20:06:25.766Z,101315.64
2017-05-03T20:08:52.104Z,101313.05
2017-05-03T20:11:18.565Z,101300.47
2017-05-03T20:13:45.750Z,101291.88
2017-05-03T20:16:12.263Z,101290.31
2017-05-03T20:18:38.710Z,101296.92
2017-05-03T20:21:05.964Z,101298.31
2017-05-03T20:23:32.356Z,101294.63
2017-05-03T20:25:58.736Z,101299.46
2017-05-03T20:28:25.835Z,101303.93
2017-05-03T20:30:52.236Z,101300.97
2017-05-03T20:33:18.653Z,101296.44
2017-05-03T20:35:45.081Z,101293.83
2017-05-03T20:38:11.461Z,101293.78
2017-05-03T20:40:37.846Z,101292.61
2017-05-03T20:43:04.198Z,101301.67
2017-05-03T20:45:30.710Z,101296.17
2017-05-03T20:47:57.043Z,101299.19
2017-05-03T20:50:23.400Z,101300.49
2017-05-03T20:52:49.733Z,101299.93
2017-05-03T20:55:16.064Z,101295.86
2017-05-03T20:57:43.391Z,101301.94
2017-05-03T21:00:09.764Z,101294.48
2017-05-03T21:02:36.378Z,101297.45
2017-05-03T21:05:02.870Z,101297.92
2017-05-03T21:07:29.319Z,101295.73
2017-05-03T21:09:55.739Z,101299.32
2017-05-03T21:12:22.097Z,101301.54
2017-05-03T21:14:48.445Z,101306.02
2017-05-03T21:17:14.866Z,101301.13
2017-05-03T21:19:41.491Z,101305.81
2017-05-03T21:22:07.849Z,101301.30
2017-05-03T21:24:34.180Z,101307.01
2017-05-03T21:27:00.573Z,101300.84
2017-05-03T21:29:26.898Z,101306.12
2017-05-03T21:31:53.979Z,101294.70
2017-05-03T21:34:20.314Z,101291.17
2017-05-03T21:36:46.910Z,101289.89
2017-05-03T21:39:13.232Z,101291.64
2017-05-03T21:41:39.596Z,101287.55
2017-05-03T21:44:05.942Z,101284.78
2017-05-03T21:46:32.245Z,101282.59
2017-05-03T21:48:59.374Z,101281.41
2017-05-03T21:51:26.757Z,101278.83
2017-05-03T21:53:53.268Z,101273.43
2017-05-03T21:56:19.659Z,101271.77
2017-05-03T21:58:46.012Z,101272.19
2017-05-03T22:01:12.364Z,101270.92
2017-05-03T22:03:38.770Z,101269.05
2017-05-03T22:06:05.678Z,101261.84
2017-05-03T22:08:32.652Z,101255.33
2017-05-03T22:11:01.017Z,101262.16
2017-05-03T22:13:27.614Z,101256.89
2017-05-03T22:15:53.908Z,101256.17
2017-05-03T22:18:20.850Z,101252.61
2017-05-03T22:20:47.358Z,101249.00
2017-05-03T22:23:14.652Z,101251.17
2017-05-03T22:25:43.102Z,101254.42
2017-05-03T22:28:09.729Z,101246.49
2017-05-03T22:30:36.065Z,101252.88
2017-05-03T22:33:02.437Z,101246.94
2017-05-03T22:35:28.773Z,101246.50
2017-05-03T22:37:55.377Z,101240.72
2017-05-03T22:40:21.772Z,101239.94
2017-05-03T22:42:48.115Z,101240.80
2017-05-03T22:45:16.512Z,101245.98
2017-05-03T22:47:43.752Z,101248.94
2017-05-03T22:50:10.275Z,101243.59
2017-05-03T22:52:37.820Z,101246.47
2017-05-03T22:55:04.258Z,101239.37
2017-05-03T22:57:30.894Z,101243.33
2017-05-03T22:59:57.244Z,101239.20
2017-05-03T23:02:23.584Z,101236.50
2017-05-03T23:04:50.210Z,101237.66
2017-05-03T23:07:16.581Z,101235.51
2017-05-03T23:09:42.937Z,101244.34
2017-05-03T23:12:09.285Z,101241.51
2017-05-03T23:14:35.745Z,101240.16
2017-05-03T23:17:02.154Z,101233.31
2017-05-03T23:19:28.485Z,101238.69
2017-05-03T23:21:54.864Z,101240.95
2017-05-03T23:24:21.330Z,101237.81
2017-05-03T23:26:47.713Z,101241.91
2017-05-03T23:29:14.088Z,101235.97
2017-05-03T23:31:40.701Z,101236.41
2017-05-03T23:34:07.073Z,101233.47
2017-05-03T23:36:33.434Z,101222.24
2017-05-03T23:38:59.814Z,101222.71
2017-05-03T23:41:26.288Z,101216.77
2017-05-03T23:43:52.654Z,101217.80
2017-05-03T23:46:18.999Z,101211.78
2017-05-03T23:48:45.345Z,101221.05
2017-05-03T23:51:11.766Z,101217.50
2017-05-03T23:53:38.103Z,101212.29
2017-05-03T23:56:04.438Z,101209.81
2017-05-03T23:58:30.791Z,101207.91
